createdAt,value
2022-10-13T00:01:42.321Z,88.80
2022-10-13T00:04:08.790Z,88.73
2022-10-13T00:06:35.251Z,89.83
2022-10-13T00:09:01.765Z,89.68
2022-10-13T00:11:30.298Z,89.98
2022-10-13T00:13:59.682Z,89.80
2022-10-13T00:16:27.612Z,89.89
2022-10-13T00:18:54.383Z,89.52
2022-10-13T00:21:24.095Z,90.25
2022-10-13T00:23:52.068Z,90.59
2022-10-13T00:26:19.211Z,90.24
2022-10-13T00:28:51.275Z,90.35
2022-10-13T00:31:25.417Z,90.70
2022-10-13T00:33:52.858Z,90.45
2022-10-13T00:36:20.713Z,90.63
2022-10-13T00:38:47.272Z,90.76
2022-10-13T00:41:14.417Z,90.82
2022-10-13T00:43:57.720Z,91.11
2022-10-13T00:46:30.478Z,90.51
2022-10-13T00:48:59.680Z,90.88
2022-10-13T00:51:30.550Z,90.73
2022-10-13T00:53:59.199Z,90.49
2022-10-13T00:56:27.325Z,90.55
2022-10-13T00:58:55.789Z,90.65
2022-10-13T01:01:22.566Z,89.95
2022-10-13T01:03:49.004Z,90.85
2022-10-13T01:06:21.181Z,90.52
2022-10-13T01:08:49.965Z,90.90
2022-10-13T01:11:51.426Z,90.92
2022-10-13T01:14:38.359Z,90.87
2022-10-13T01:17:36.964Z,90.86
2022-10-13T01:20:14.676Z,90.43
2022-10-13T01:23:16.341Z,90.67
2022-10-13T01:25:45.470Z,90.76
2022-10-13T01:28:15.019Z,90.82
2022-10-13T01:30:48.663Z,90.68
2022-10-13T01:33:50.005Z,91.09
2022-10-13T01:36:32.984Z,91.38
2022-10-13T01:39:07.620Z,90.98
2022-10-13T01:41:54.225Z,91.00
2022-10-13T01:44:31.435Z,91.01
2022-10-13T01:47:00.748Z,90.78
2022-10-13T01:49:30.787Z,90.63
2022-10-13T01:52:02.012Z,90.46
2022-10-13T01:54:28.472Z,90.64
2022-10-13T01:56:56.466Z,90.36
2022-10-13T01:59:25.604Z,90.06
2022-10-13T02:02:30.630Z,90.75
2022-10-13T02:05:04.520Z,91.03
2022-10-13T02:07:42.648Z,90.19
2022-10-13T02:10:17.626Z,89.99
2022-10-13T02:13:00.671Z,89.55
2022-10-13T02:15:37.273Z,90.19
2022-10-13T02:18:04.705Z,88.62
2022-10-13T02:20:31.991Z,88.65
2022-10-13T02:23:03.962Z,89.06
2022-10-13T02:25:30.892Z,88.96
2022-10-13T02:28:00.739Z,89.22
2022-10-13T02:30:29.844Z,90.05
2022-10-13T02:32:56.503Z,89.67
2022-10-13T02:35:22.997Z,88.11
2022-10-13T02:37:49.437Z,88.22
2022-10-13T02:40:15.869Z,88.59
2022-10-13T02:42:42.338Z,87.43
2022-10-13T02:45:09.863Z,87.11
2022-10-13T02:47:36.363Z,89.42
2022-10-13T02:50:03.186Z,88.70
2022-10-13T02:52:29.677Z,88.67
2022-10-13T02:54:56.206Z,90.19
2022-10-13T02:57:22.680Z,89.58
2022-10-13T02:59:49.147Z,88.29
2022-10-13T03:02:15.799Z,89.15
2022-10-13T03:04:42.216Z,88.77
2022-10-13T03:07:08.680Z,88.78
2022-10-13T03:09:35.167Z,88.40
2022-10-13T03:12:02.255Z,88.39
2022-10-13T03:14:28.790Z,87.18
2022-10-13T03:16:55.228Z,86.67
2022-10-13T03:19:21.683Z,86.52
2022-10-13T03:21:48.108Z,85.96
2022-10-13T03:24:14.561Z,86.27
2022-10-13T03:26:41.019Z,86.07
2022-10-13T03:29:07.516Z,86.21
2022-10-13T03:31:34.045Z,86.52
2022-10-13T03:34:00.480Z,86.81
2022-10-13T03:36:26.995Z,86.70
2022-10-13T03:38:53.443Z,86.26
2022-10-13T03:41:19.933Z,87.14
2022-10-13T03:43:46.505Z,86.46
2022-10-13T03:46:16.343Z,87.10
2022-10-13T03:48:43.584Z,86.93
2022-10-13T03:51:15.667Z,86.93
2022-10-13T03:53:42.341Z,86.85
2022-10-13T03:56:15.672Z,88.50
2022-10-13T03:58:42.914Z,87.38
2022-10-13T04:01:11.306Z,88.13
2022-10-13T04:03:37.826Z,87.73
2022-10-13T04:06:05.672Z,87.47
2022-10-13T04:08:34.146Z,87.40
2022-10-13T04:11:10.432Z,87.73
2022-10-13T04:13:36.835Z,87.54
2022-10-13T04:16:08.301Z,87.57
2022-10-13T04:18:35.041Z,88.14
2022-10-13T04:21:01.537Z,88.83
2022-10-13T04:23:27.966Z,88.61
2022-10-13T04:25:54.392Z,88.38
2022-10-13T04:28:20.905Z,88.08
2022-10-13T04:30:49.514Z,87.90
2022-10-13T04:33:16.778Z,87.89
2022-10-13T04:35:43.258Z,89.97
2022-10-13T04:38:09.721Z,89.20
2022-10-13T04:40:36.225Z,88.72
2022-10-13T04:43:02.922Z,88.21
2022-10-13T04:45:29.405Z,88.64
2022-10-13T04:47:55.885Z,88.54
2022-10-13T04:50:22.447Z,88.24
2022-10-13T04:52:48.865Z,91.05
2022-10-13T04:55:15.347Z,89.45
2022-10-13T04:57:41.796Z,88.61
2022-10-13T05:00:08.658Z,88.73
2022-10-13T05:02:36.368Z,89.41
2022-10-13T05:05:03.622Z,88.88
2022-10-13T05:07:31.457Z,89.07
2022-10-13T05:09:57.918Z,89.10
2022-10-13T05:12:24.553Z,88.94
2022-10-13T05:14:51.076Z,88.89
2022-10-13T05:17:17.633Z,90.00
2022-10-13T05:19:44.440Z,89.43
2022-10-13T05:22:10.919Z,91.76
2022-10-13T05:24:37.452Z,90.30
2022-10-13T05:27:10.340Z,90.00
2022-10-13T05:29:38.022Z,89.95
2022-10-13T05:32:04.992Z,89.68
2022-10-13T05:34:32.699Z,90.28
2022-10-13T05:37:00.181Z,90.71
2022-10-13T05:39:26.811Z,90.60
2022-10-13T05:41:53.269Z,90.45
2022-10-13T05:44:19.758Z,89.70
2022-10-13T05:46:46.193Z,89.41
2022-10-13T05:49:12.604Z,89.87
2022-10-13T05:51:44.413Z,89.82
2022-10-13T05:54:20.310Z,90.50
2022-10-13T05:57:13.542Z,90.90
2022-10-13T05:59:45.260Z,91.10
2022-10-13T06:02:14.929Z,90.40
2022-10-13T06:04:46.391Z,91.46
2022-10-13T06:07:13.594Z,91.19
2022-10-13T06:09:41.812Z,91.00
2022-10-13T06:12:09.709Z,90.38
2022-10-13T06:14:36.265Z,90.30
2022-10-13T06:17:02.784Z,90.09
2022-10-13T06:19:29.219Z,90.18
2022-10-13T06:21:57.207Z,89.97
2022-10-13T06:24:26.444Z,90.33
2022-10-13T06:26:52.996Z,92.77
2022-10-13T06:29:19.470Z,91.60
2022-10-13T06:31:45.945Z,91.38
2022-10-13T06:34:12.586Z,90.88
2022-10-13T06:36:39.280Z,90.85
2022-10-13T06:39:05.741Z,90.82
2022-10-13T06:41:32.187Z,90.60
2022-10-13T06:43:58.705Z,90.81
2022-10-13T06:46:25.200Z,91.11
2022-10-13T06:48:52.185Z,90.85
2022-10-13T06:51:19.297Z,91.08
2022-10-13T06:53:45.771Z,92.26
2022-10-13T06:56:12.190Z,91.59
2022-10-13T06:58:38.921Z,92.58
2022-10-13T07:01:06.270Z,92.38
2022-10-13T07:03:33.283Z,92.54
2022-10-13T07:06:05.073Z,91.80
2022-10-13T07:08:34.351Z,91.02
2022-10-13T07:11:15.337Z,90.77
2022-10-13T07:13:46.229Z,90.96
2022-10-13T07:16:13.380Z,91.20
2022-10-13T07:18:39.937Z,91.59
2022-10-13T07:21:06.796Z,90.80
2022-10-13T07:23:33.840Z,90.42
2022-10-13T07:26:01.719Z,90.01
2022-10-13T07:28:28.358Z,90.07
2022-10-13T07:30:55.020Z,89.88
2022-10-13T07:33:21.507Z,90.19
2022-10-13T07:35:48.232Z,90.72
2022-10-13T07:38:14.779Z,90.50
2022-10-13T07:40:41.256Z,90.19
2022-10-13T07:43:07.695Z,90.39
2022-10-13T07:45:34.174Z,90.16
2022-10-13T07:48:00.592Z,90.25
2022-10-13T07:50:27.003Z,90.45
2022-10-13T07:52:53.477Z,90.86
2022-10-13T07:55:19.930Z,90.28
2022-10-13T07:57:46.358Z,89.43
2022-10-13T08:00:13.193Z,89.21
2022-10-13T08:02:39.749Z,88.83
2022-10-13T08:05:06.419Z,88.65
2022-10-13T08:07:32.927Z,88.57
2022-10-13T08:09:59.411Z,88.34
2022-10-13T08:12:25.899Z,88.37
2022-10-13T08:14:52.388Z,87.95
2022-10-13T08:17:19.123Z,87.82
2022-10-13T08:19:45.787Z,87.80
2022-10-13T08:22:12.533Z,87.42
2022-10-13T08:24:39.002Z,87.46
2022-10-13T08:27:05.447Z,87.68
2022-10-13T08:29:32.042Z,87.53
2022-10-13T08:31:58.607Z,85.90
2022-10-13T08:34:25.925Z,84.96
2022-10-13T08:36:56.086Z,85.00
2022-10-13T08:39:24.401Z,84.87
2022-10-13T08:41:51.200Z,84.56
2022-10-13T08:47:35.667Z,85.11
2022-10-13T08:50:13.474Z,85.03
2022-10-13T08:52:57.589Z,84.77
2022-10-13T08:55:25.920Z,84.61
2022-10-13T08:57:52.577Z,83.91
2022-10-13T09:00:19.515Z,83.79
2022-10-13T09:02:46.894Z,83.50
2022-10-13T09:05:22.047Z,83.72
2022-10-13T09:07:50.360Z,83.61
2022-10-13T09:10:18.783Z,83.22
2022-10-13T09:12:45.257Z,79.62
2022-10-13T09:15:12.977Z,76.12
2022-10-13T09:17:44.455Z,76.88
2022-10-13T09:20:20.419Z,74.48
2022-10-13T09:23:08.054Z,73.38
2022-10-13T09:25:44.016Z,72.86
2022-10-13T09:28:22.478Z,72.09
2022-10-13T09:31:02.086Z,72.08
2022-10-13T09:33:28.587Z,70.48
2022-10-13T09:36:01.173Z,72.80
2022-10-13T09:38:28.939Z,72.98
2022-10-13T09:41:12.309Z,69.16
2022-10-13T09:43:46.365Z,69.21
2022-10-13T09:46:27.194Z,68.45
2022-10-13T09:48:56.801Z,68.55
2022-10-13T09:51:34.333Z,69.93
2022-10-13T09:54:01.336Z,69.30
2022-10-13T09:56:46.344Z,69.49
2022-10-13T10:02:44.065Z,70.94
2022-10-13T10:05:50.893Z,71.08
2022-10-13T10:08:33.688Z,70.98
2022-10-13T10:11:12.408Z,70.62
2022-10-13T10:13:38.862Z,71.41
2022-10-13T10:16:20.627Z,71.23
2022-10-13T10:19:00.020Z,70.46
2022-10-13T10:22:04.023Z,71.32
2022-10-13T10:24:43.700Z,70.68
2022-10-13T10:27:27.998Z,68.95
2022-10-13T10:30:05.140Z,68.32
2022-10-13T10:32:53.357Z,66.96
2022-10-13T10:35:44.250Z,66.50
2022-10-13T10:38:19.481Z,66.41
2022-10-13T10:40:50.404Z,66.85
2022-10-13T10:43:36.806Z,66.93
2022-10-13T10:46:11.756Z,67.01
2022-10-13T10:48:39.970Z,66.24
2022-10-13T10:51:08.511Z,65.87
2022-10-13T10:54:09.391Z,66.39
2022-10-13T10:56:40.642Z,66.30
2022-10-13T10:59:37.121Z,66.40
2022-10-13T11:02:06.588Z,67.06
2022-10-13T11:04:40.935Z,67.16
2022-10-13T11:07:33.599Z,67.43
2022-10-13T11:10:00.031Z,67.63
2022-10-13T11:12:47.088Z,68.31
2022-10-13T11:15:22.250Z,68.53
2022-10-13T11:17:48.722Z,68.48
2022-10-13T11:20:20.896Z,69.26
2022-10-13T11:22:59.457Z,69.94
2022-10-13T11:25:41.303Z,71.68
2022-10-13T11:28:22.869Z,72.91
2022-10-13T11:31:13.558Z,73.51
2022-10-13T11:33:39.955Z,74.81
2022-10-13T11:36:32.644Z,75.24
2022-10-13T11:39:27.822Z,76.09
2022-10-13T11:42:31.577Z,76.84
2022-10-13T11:45:03.949Z,77.35
2022-10-13T11:47:54.565Z,76.91
2022-10-13T11:50:38.062Z,77.55
2022-10-13T11:53:28.091Z,78.59
2022-10-13T11:56:01.306Z,79.02
2022-10-13T11:58:32.912Z,80.13
2022-10-13T12:01:06.429Z,81.26
2022-10-13T12:03:39.133Z,81.77
2022-10-13T12:06:22.839Z,82.07
2022-10-13T12:08:51.435Z,80.98
2022-10-13T12:11:37.666Z,82.40
2022-10-13T12:14:08.253Z,82.26
2022-10-13T12:16:34.807Z,81.78
2022-10-13T12:19:20.389Z,81.85
2022-10-13T12:21:52.228Z,80.59
2022-10-13T12:24:23.550Z,80.64
2022-10-13T12:26:51.039Z,80.36
2022-10-13T12:29:19.108Z,80.24
2022-10-13T12:31:48.350Z,78.98
2022-10-13T12:34:25.936Z,78.97
2022-10-13T12:37:04.937Z,78.82
2022-10-13T12:39:33.574Z,77.61
2022-10-13T12:42:02.463Z,77.35
2022-10-13T12:44:31.342Z,76.18
2022-10-13T12:47:00.497Z,76.18
2022-10-13T12:49:33.431Z,75.98
2022-10-13T12:52:09.067Z,75.61
2022-10-13T12:54:39.059Z,75.19
2022-10-13T12:57:37.519Z,72.83
2022-10-13T13:00:22.241Z,74.70
2022-10-13T13:03:00.786Z,75.28
2022-10-13T13:05:31.771Z,73.51
2022-10-13T13:07:58.950Z,74.71
2022-10-13T13:10:25.715Z,73.09
2022-10-13T13:12:53.808Z,74.31
2022-10-13T13:15:37.550Z,74.68
2022-10-13T13:18:41.531Z,74.29
2022-10-13T13:21:26.331Z,75.01
2022-10-13T13:23:54.109Z,74.95
2022-10-13T13:26:24.330Z,75.44
2022-10-13T13:28:53.246Z,75.88
2022-10-13T13:31:22.879Z,75.52
2022-10-13T13:33:49.508Z,75.75
2022-10-13T13:36:21.620Z,76.33
2022-10-13T13:38:49.136Z,77.09
2022-10-13T13:41:16.331Z,77.12
2022-10-13T13:43:43.206Z,76.67
2022-10-13T13:46:19.378Z,78.19
2022-10-13T13:48:46.067Z,78.44
2022-10-13T13:51:12.505Z,78.83
2022-10-13T13:53:39.020Z,77.99
2022-10-13T13:56:05.701Z,78.22
2022-10-13T13:58:32.151Z,79.78
2022-10-13T14:00:59.790Z,78.58
2022-10-13T14:03:26.260Z,78.62
2022-10-13T14:05:52.674Z,78.42
2022-10-13T14:08:19.517Z,78.66
2022-10-13T14:10:46.058Z,78.92
2022-10-13T14:13:12.501Z,78.39
2022-10-13T14:15:38.951Z,79.40
2022-10-13T14:18:05.482Z,79.38
2022-10-13T14:20:31.923Z,79.42
2022-10-13T14:22:58.360Z,79.51
2022-10-13T14:25:25.128Z,80.60
2022-10-13T14:27:52.007Z,81.19
2022-10-13T14:30:18.491Z,82.33
2022-10-13T14:32:44.989Z,83.29
2022-10-13T14:35:11.491Z,84.51
2022-10-13T14:37:38.236Z,83.46
2022-10-13T14:40:05.437Z,83.40
2022-10-13T14:42:31.912Z,85.24
2022-10-13T14:44:58.366Z,86.20
2022-10-13T14:47:24.773Z,85.81
2022-10-13T14:49:51.220Z,83.32
2022-10-13T14:52:17.643Z,84.80
2022-10-13T14:54:45.153Z,85.15
2022-10-13T14:57:15.717Z,86.82
2022-10-13T14:59:42.994Z,88.15
2022-10-13T15:02:11.497Z,88.39
2022-10-13T15:04:37.955Z,89.78
2022-10-13T15:07:04.616Z,88.82
2022-10-13T15:09:44.986Z,86.77
2022-10-13T15:12:17.960Z,86.80
2022-10-13T15:14:44.682Z,89.26
2022-10-13T15:17:11.229Z,88.99
2022-10-13T15:19:37.674Z,87.81
2022-10-13T15:22:04.126Z,86.54
2022-10-13T15:24:30.557Z,88.15
2022-10-13T15:26:57.037Z,86.40
2022-10-13T15:29:23.548Z,87.58
2022-10-13T15:31:50.020Z,87.42
2022-10-13T15:34:16.461Z,88.74
2022-10-13T15:36:42.978Z,87.84
2022-10-13T15:39:10.723Z,87.56
2022-10-13T15:41:37.185Z,85.55
2022-10-13T15:44:03.758Z,87.06
2022-10-13T15:46:31.485Z,85.01
2022-10-13T15:48:59.840Z,84.39
2022-10-13T15:51:27.088Z,85.35
2022-10-13T15:53:55.187Z,85.51
2022-10-13T15:56:22.016Z,85.36
2022-10-13T15:58:48.495Z,84.94
2022-10-13T16:01:15.075Z,87.17
2022-10-13T16:03:41.978Z,86.50
2022-10-13T16:06:11.069Z,86.05
2022-10-13T16:08:43.671Z,87.28
2022-10-13T16:11:13.078Z,88.49
2022-10-13T16:13:40.086Z,89.02
2022-10-13T16:16:07.504Z,88.45
2022-10-13T16:18:36.361Z,86.88
2022-10-13T16:21:20.899Z,89.24
2022-10-13T16:23:48.395Z,88.86
2022-10-13T16:26:17.358Z,89.34
2022-10-13T16:28:44.893Z,90.40
2022-10-13T16:31:14.549Z,89.47
2022-10-13T16:33:41.910Z,88.59
2022-10-13T16:36:13.279Z,88.75
2022-10-13T16:38:40.037Z,89.46
2022-10-13T16:41:08.612Z,89.22
2022-10-13T16:43:35.139Z,91.72
2022-10-13T16:46:03.580Z,89.89
2022-10-13T16:48:32.214Z,89.80
2022-10-13T16:51:00.682Z,91.81
2022-10-13T16:53:27.116Z,90.67
2022-10-13T16:55:53.545Z,91.06
2022-10-13T16:58:19.962Z,91.68
2022-10-13T17:00:46.570Z,91.50
2022-10-13T17:03:13.060Z,92.96
2022-10-13T17:05:39.471Z,93.96
2022-10-13T17:08:06.318Z,96.22
2022-10-13T17:10:33.967Z,97.67
2022-10-13T17:13:00.595Z,97.98
2022-10-13T17:15:27.177Z,96.81
2022-10-13T17:17:53.718Z,96.97
2022-10-13T17:20:20.150Z,97.60
2022-10-13T17:22:46.597Z,96.81
2022-10-13T17:25:13.509Z,95.87
2022-10-13T17:27:40.085Z,96.87
2022-10-13T17:30:07.005Z,97.94
2022-10-13T17:32:37.613Z,97.63
2022-10-13T17:35:04.967Z,97.31
2022-10-13T17:37:31.403Z,95.69
2022-10-13T17:39:57.883Z,96.42
2022-10-13T17:42:24.373Z,96.93
2022-10-13T17:44:50.807Z,97.04
2022-10-13T17:47:17.326Z,96.22
2022-10-13T17:49:44.016Z,97.21
2022-10-13T17:52:10.425Z,97.24
2022-10-13T17:54:36.933Z,97.36
2022-10-13T17:57:03.468Z,95.82
2022-10-13T17:59:30.099Z,97.14
2022-10-13T18:01:56.615Z,97.30
2022-10-13T18:04:23.671Z,97.29
2022-10-13T18:06:50.160Z,97.21
2022-10-13T18:09:19.466Z,96.99
2022-10-13T18:11:50.771Z,97.58
2022-10-13T18:14:19.142Z,97.12
2022-10-13T18:16:46.633Z,97.36
2022-10-13T18:19:13.529Z,97.23
2022-10-13T18:21:40.241Z,97.35
2022-10-13T18:24:07.113Z,97.51
2022-10-13T18:26:36.531Z,97.06
2022-10-13T18:29:04.894Z,97.45
2022-10-13T18:31:34.587Z,97.05
2022-10-13T18:34:07.885Z,96.82
2022-10-13T18:36:40.022Z,95.82
2022-10-13T18:39:15.329Z,95.96
2022-10-13T18:41:42.522Z,95.57
2022-10-13T18:44:09.804Z,94.97
2022-10-13T18:46:37.990Z,94.17
2022-10-13T18:49:06.265Z,93.90
2022-10-13T18:51:36.161Z,93.22
2022-10-13T18:54:04.010Z,92.70
2022-10-13T18:56:32.001Z,91.60
2022-10-13T18:59:00.824Z,91.81
2022-10-13T19:01:31.116Z,91.17
2022-10-13T19:03:58.222Z,91.15
2022-10-13T19:06:26.830Z,91.26
2022-10-13T19:09:02.025Z,91.63
2022-10-13T19:11:29.503Z,91.00
2022-10-13T19:13:57.517Z,91.13
2022-10-13T19:16:26.025Z,91.51
2022-10-13T19:18:52.664Z,91.75
2022-10-13T19:21:20.246Z,91.50
2022-10-13T19:23:47.102Z,91.63
2022-10-13T19:26:16.978Z,91.55
2022-10-13T19:28:44.240Z,91.03
2022-10-13T19:31:13.756Z,91.37
2022-10-13T19:33:44.663Z,91.70
2022-10-13T19:36:19.369Z,91.92
2022-10-13T19:38:45.797Z,91.81
2022-10-13T19:41:12.227Z,92.33
2022-10-13T19:43:38.840Z,92.88
2022-10-13T19:46:06.919Z,92.78
2022-10-13T19:48:34.143Z,92.53
2022-10-13T19:51:01.818Z,92.88
2022-10-13T19:53:28.261Z,93.17
2022-10-13T19:55:54.734Z,93.24
2022-10-13T19:58:21.285Z,92.90
2022-10-13T20:00:49.777Z,92.66
2022-10-13T20:03:16.467Z,93.18
2022-10-13T20:05:43.517Z,92.55
2022-10-13T20:08:11.855Z,93.45
2022-10-13T20:10:40.482Z,93.78
2022-10-13T20:13:07.601Z,93.44
2022-10-13T20:15:34.212Z,93.77
2022-10-13T20:18:00.672Z,93.84
2022-10-13T20:20:27.203Z,94.04
2022-10-13T20:22:53.626Z,93.43
2022-10-13T20:25:20.133Z,94.19
2022-10-13T20:27:47.011Z,94.58
2022-10-13T20:30:14.356Z,94.14
2022-10-13T20:32:41.368Z,94.10
2022-10-13T20:35:08.282Z,94.13
2022-10-13T20:37:34.763Z,94.04
2022-10-13T20:40:01.186Z,94.31
2022-10-13T20:42:27.678Z,94.32
2022-10-13T20:44:54.108Z,94.09
2022-10-13T20:47:20.766Z,94.14
2022-10-13T20:49:47.631Z,94.48
2022-10-13T20:52:14.050Z,94.48
2022-10-13T20:54:40.485Z,94.75
2022-10-13T20:57:06.988Z,94.63
2022-10-13T20:59:33.498Z,94.93
2022-10-13T21:01:59.938Z,94.80
2022-10-13T21:04:26.419Z,94.76
2022-10-13T21:06:52.908Z,95.18
2022-10-13T21:09:19.413Z,94.97
2022-10-13T21:11:45.847Z,95.52
2022-10-13T21:14:12.297Z,95.06
2022-10-13T21:16:39.014Z,94.95
2022-10-13T21:19:05.703Z,95.07
2022-10-13T21:21:34.107Z,95.26
2022-10-13T21:24:03.053Z,95.23
2022-10-13T21:26:30.959Z,95.45
2022-10-13T21:28:57.793Z,95.34
2022-10-13T21:31:26.403Z,95.72
2022-10-13T21:33:53.657Z,95.45
2022-10-13T21:36:23.433Z,95.56
2022-10-13T21:38:51.827Z,95.61
2022-10-13T21:41:19.368Z,96.46
2022-10-13T21:43:45.844Z,96.77
2022-10-13T21:46:21.455Z,95.94
2022-10-13T21:48:48.757Z,96.09
2022-10-13T21:51:21.538Z,97.00
2022-10-13T21:53:56.474Z,97.37
2022-10-13T21:56:24.526Z,96.79
2022-10-13T21:58:51.049Z,96.53
2022-10-13T22:01:19.441Z,96.50
2022-10-13T22:03:47.429Z,96.24
2022-10-13T22:06:19.011Z,97.01
2022-10-13T22:08:48.470Z,96.81
2022-10-13T22:11:15.643Z,97.10
2022-10-13T22:13:42.348Z,97.89
2022-10-13T22:16:14.181Z,97.87
2022-10-13T22:18:41.287Z,98.03
2022-10-13T22:21:12.338Z,98.15
2022-10-13T22:23:38.946Z,99.03
2022-10-13T22:26:05.398Z,100.00
2022-10-13T22:28:36.886Z,99.88
2022-10-13T22:31:09.542Z,100.00
2022-10-13T22:33:38.729Z,100.00
2022-10-13T22:36:19.340Z,99.30
2022-10-13T22:38:46.998Z,98.20
2022-10-13T22:41:15.313Z,98.07
2022-10-13T22:43:46.634Z,99.79
2022-10-13T22:46:15.758Z,99.38
2022-10-13T22:48:42.244Z,99.17
2022-10-13T22:51:09.348Z,99.65
2022-10-13T22:53:35.904Z,100.00
2022-10-13T22:56:10.239Z,99.77
2022-10-13T22:58:36.786Z,98.65
2022-10-13T23:01:10.981Z,98.67
2022-10-13T23:03:37.884Z,99.88
2022-10-13T23:06:05.095Z,99.99
2022-10-13T23:08:31.590Z,100.00
2022-10-13T23:10:58.216Z,100.00
2022-10-13T23:13:25.230Z,100.00
2022-10-13T23:15:51.686Z,100.00
2022-10-13T23:18:18.196Z,100.00
2022-10-13T23:20:44.612Z,100.00
2022-10-13T23:23:11.157Z,100.00
2022-10-13T23:25:37.971Z,100.00
2022-10-13T23:28:04.787Z,100.00
2022-10-13T23:30:31.251Z,100.00
2022-10-13T23:32:57.691Z,100.00
2022-10-13T23:35:24.245Z,100.00
2022-10-13T23:37:52.820Z,100.00
2022-10-13T23:40:19.564Z,100.00
2022-10-13T23:42:46.021Z,100.00
2022-10-13T23:45:12.473Z,100.00
2022-10-13T23:47:38.910Z,100.00
2022-10-13T23:50:05.872Z,100.00
2022-10-13T23:52:32.281Z,100.00
2022-10-13T23:54:58.705Z,100.00
2022-10-13T23:57:25.168Z,100.00
2022-10-13T23:59:51.581Z,100.00
